createdAt,value
2018-07-31T00:00:23.417Z,5.63
2018-07-31T00:02:51.808Z,5.10
2018-07-31T00:05:20.214Z,6.10
2018-07-31T00:07:48.619Z,4.77
2018-07-31T00:10:17.024Z,4.30
2018-07-31T00:12:45.631Z,4.07
2018-07-31T00:15:14.052Z,4.50
2018-07-31T00:17:42.449Z,5.27
2018-07-31T00:20:11.066Z,5.00
2018-07-31T00:22:39.469Z,4.77
2018-07-31T00:25:07.871Z,4.27
2018-07-31T00:27:36.269Z,3.80
2018-07-31T00:30:07.201Z,4.60
2018-07-31T00:32:35.611Z,5.23
2018-07-31T00:35:04.170Z,5.30
2018-07-31T00:37:33.008Z,5.33
2018-07-31T00:40:01.406Z,5.37
2018-07-31T00:42:30.525Z,5.40
2018-07-31T00:44:58.960Z,6.10
2018-07-31T00:47:27.442Z,6.90
2018-07-31T00:49:55.839Z,5.57
2018-07-31T00:52:24.241Z,6.00
2018-07-31T00:54:53.570Z,5.80
2018-07-31T00:57:21.979Z,5.37
2018-07-31T00:59:50.524Z,5.73
2018-07-31T01:02:19.373Z,5.40
2018-07-31T01:04:47.779Z,5.70
2018-07-31T01:07:16.167Z,5.23
2018-07-31T01:09:44.557Z,4.87
2018-07-31T01:12:12.970Z,5.73
2018-07-31T01:14:41.359Z,6.13
2018-07-31T01:17:09.780Z,5.67
2018-07-31T01:19:38.193Z,5.33
2018-07-31T01:22:06.705Z,6.07
2018-07-31T01:24:35.094Z,6.33
2018-07-31T01:27:03.505Z,6.60
2018-07-31T01:29:31.913Z,6.33
2018-07-31T01:32:00.302Z,6.47
2018-07-31T01:34:28.715Z,6.00
2018-07-31T01:36:57.113Z,7.37
2018-07-31T01:39:25.506Z,6.13
2018-07-31T01:41:53.905Z,6.27
2018-07-31T01:44:22.319Z,5.20
2018-07-31T01:46:50.735Z,6.20
2018-07-31T01:49:19.138Z,6.27
2018-07-31T01:51:47.529Z,5.10
2018-07-31T01:54:16.078Z,5.80
2018-07-31T01:56:44.469Z,5.80
2018-07-31T01:59:12.884Z,5.60
2018-07-31T02:01:41.285Z,5.70
2018-07-31T02:04:09.873Z,6.50
2018-07-31T02:06:38.263Z,5.63
2018-07-31T02:09:08.319Z,5.70
2018-07-31T02:11:36.709Z,5.40
2018-07-31T02:14:05.105Z,5.77
2018-07-31T02:16:33.956Z,4.97
2018-07-31T02:19:02.820Z,5.57
2018-07-31T02:21:31.942Z,5.57
2018-07-31T02:24:00.529Z,5.63
2018-07-31T02:26:28.925Z,4.70
2018-07-31T02:28:57.756Z,5.63
2018-07-31T02:31:26.147Z,5.50
2018-07-31T02:33:54.506Z,4.90
2018-07-31T02:36:23.205Z,5.20
2018-07-31T02:38:51.610Z,5.30
2018-07-31T02:41:20.010Z,4.43
2018-07-31T02:43:48.780Z,6.37
2018-07-31T02:46:17.637Z,5.73
2018-07-31T02:48:46.706Z,5.97
2018-07-31T02:51:15.124Z,5.07
2018-07-31T02:53:43.518Z,5.23
2018-07-31T02:56:11.918Z,5.73
2018-07-31T02:58:40.305Z,6.23
2018-07-31T03:01:08.692Z,5.67
2018-07-31T03:03:37.095Z,5.97
2018-07-31T03:06:05.631Z,5.73
2018-07-31T03:08:34.026Z,6.73
2018-07-31T03:11:02.443Z,5.60
2018-07-31T03:13:30.851Z,5.67
2018-07-31T03:15:59.417Z,6.20
2018-07-31T03:18:27.833Z,5.93
2018-07-31T03:20:56.257Z,5.93
2018-07-31T03:23:25.012Z,5.93
2018-07-31T03:25:53.863Z,5.43
2018-07-31T03:28:22.334Z,5.57
2018-07-31T03:30:50.721Z,5.57
2018-07-31T03:33:19.119Z,5.90
2018-07-31T03:35:47.785Z,6.03
2018-07-31T03:38:16.174Z,5.63
2018-07-31T03:40:44.572Z,6.23
2018-07-31T03:43:12.967Z,5.37
2018-07-31T03:45:41.377Z,5.40
2018-07-31T03:48:10.213Z,6.70
2018-07-31T03:50:38.619Z,6.30
2018-07-31T03:53:07.289Z,6.10
2018-07-31T03:55:35.889Z,6.83
2018-07-31T03:58:04.303Z,6.10
2018-07-31T04:00:32.697Z,6.80
2018-07-31T04:03:01.098Z,7.67
2018-07-31T04:05:29.538Z,7.93
2018-07-31T04:07:57.907Z,7.00
2018-07-31T04:10:26.321Z,7.00
2018-07-31T04:12:54.711Z,6.63
2018-07-31T04:15:23.139Z,7.37
2018-07-31T04:17:55.174Z,6.87
2018-07-31T04:20:23.558Z,7.53
2018-07-31T04:22:53.168Z,7.03
2018-07-31T04:25:22.050Z,8.30
2018-07-31T04:27:50.456Z,7.53
2018-07-31T04:30:18.842Z,7.90
2018-07-31T04:32:47.602Z,7.60
2018-07-31T04:35:16.059Z,7.40
2018-07-31T04:37:44.462Z,8.30
2018-07-31T04:40:12.858Z,8.20
2018-07-31T04:42:41.336Z,7.17
2018-07-31T04:45:11.555Z,7.50
2018-07-31T04:47:41.045Z,8.30
2018-07-31T04:50:10.321Z,6.90
2018-07-31T04:52:39.513Z,7.10
2018-07-31T04:55:07.936Z,7.00
2018-07-31T04:57:36.480Z,7.33
2018-07-31T05:00:07.891Z,6.70
2018-07-31T05:02:37.583Z,6.73
2018-07-31T05:05:06.429Z,6.37
2018-07-31T05:07:38.966Z,5.97
2018-07-31T05:10:11.100Z,6.60
2018-07-31T05:12:40.210Z,6.73
2018-07-31T05:15:08.600Z,8.07
2018-07-31T05:17:38.633Z,9.17
2018-07-31T05:20:08.728Z,8.87
2018-07-31T05:22:37.710Z,12.00
2018-07-31T05:26:35.847Z,16.00
2018-07-31T05:29:04.241Z,25.27
2018-07-31T05:31:32.647Z,24.80
2018-07-31T05:34:01.615Z,26.53
2018-07-31T05:36:30.015Z,21.13
2018-07-31T05:38:58.407Z,9.03
2018-07-31T05:41:26.802Z,10.03
2018-07-31T05:43:55.217Z,8.90
2018-07-31T05:46:23.625Z,8.67
2018-07-31T05:48:52.036Z,9.47
2018-07-31T05:51:20.436Z,8.87
2018-07-31T05:53:49.101Z,8.63
2018-07-31T05:56:17.508Z,9.47
2018-07-31T05:58:45.982Z,9.33
2018-07-31T06:01:14.416Z,8.30
2018-07-31T06:03:42.826Z,8.97
2018-07-31T06:06:11.230Z,9.07
2018-07-31T06:08:39.638Z,8.30
2018-07-31T06:11:08.038Z,8.80
2018-07-31T06:13:36.434Z,10.00
2018-07-31T06:16:05.287Z,10.43
2018-07-31T06:18:33.696Z,11.10
2018-07-31T06:21:02.109Z,14.23
2018-07-31T06:23:30.876Z,14.23
2018-07-31T06:25:59.287Z,10.83
2018-07-31T06:28:27.689Z,12.13
2018-07-31T06:30:56.100Z,13.70
2018-07-31T06:33:24.535Z,16.20
2018-07-31T06:35:54.134Z,10.50
2018-07-31T06:38:22.537Z,10.07
2018-07-31T06:40:50.932Z,9.17
2018-07-31T06:43:19.318Z,8.93
2018-07-31T06:45:47.717Z,12.73
2018-07-31T06:48:16.117Z,12.07
2018-07-31T06:50:44.525Z,8.47
2018-07-31T06:53:12.913Z,9.93
2018-07-31T06:55:41.319Z,8.47
2018-07-31T06:58:09.721Z,12.50
2018-07-31T07:00:38.413Z,7.63
2018-07-31T07:03:07.499Z,7.67
2018-07-31T07:05:35.902Z,5.63
2018-07-31T07:08:04.351Z,5.50
2018-07-31T07:10:32.759Z,5.53
2018-07-31T07:13:01.155Z,4.20
2018-07-31T07:15:29.584Z,3.67
2018-07-31T07:17:57.962Z,3.73
2018-07-31T07:20:26.358Z,3.47
2018-07-31T07:22:54.786Z,3.27
2018-07-31T07:25:23.202Z,3.00
2018-07-31T07:27:51.781Z,2.60
2018-07-31T07:30:20.177Z,2.57
2018-07-31T07:32:48.578Z,2.13
2018-07-31T07:35:16.972Z,2.13
2018-07-31T07:37:45.396Z,2.17
2018-07-31T07:40:13.839Z,2.47
2018-07-31T07:42:42.315Z,2.63
2018-07-31T07:45:10.922Z,2.30
2018-07-31T07:47:39.350Z,2.27
2018-07-31T07:50:07.862Z,2.00
2018-07-31T07:52:36.426Z,2.50
2018-07-31T07:55:04.871Z,1.90
2018-07-31T07:57:33.269Z,2.00
2018-07-31T08:00:01.695Z,2.10
2018-07-31T08:02:30.098Z,2.23
2018-07-31T08:04:58.515Z,2.37
2018-07-31T08:07:26.938Z,2.20
2018-07-31T08:09:55.349Z,2.00
2018-07-31T08:12:23.747Z,1.93
2018-07-31T08:14:52.183Z,2.00
2018-07-31T08:17:20.585Z,2.10
2018-07-31T08:19:49.025Z,2.07
2018-07-31T08:22:17.418Z,2.07
2018-07-31T08:24:46.326Z,1.80
2018-07-31T08:27:14.754Z,2.17
2018-07-31T08:29:43.154Z,1.90
2018-07-31T08:32:11.567Z,2.20
2018-07-31T08:34:39.953Z,2.13
2018-07-31T08:37:08.346Z,2.17
2018-07-31T08:39:36.750Z,2.40
2018-07-31T08:42:05.161Z,1.70
2018-07-31T08:44:33.865Z,2.10
2018-07-31T08:47:02.281Z,2.30
2018-07-31T08:49:30.713Z,2.13
2018-07-31T08:51:59.228Z,2.00
2018-07-31T08:54:27.625Z,2.10
2018-07-31T08:56:56.082Z,2.53
2018-07-31T08:59:24.492Z,3.00
2018-07-31T09:01:52.899Z,2.10
2018-07-31T09:04:21.310Z,2.17
2018-07-31T09:06:50.101Z,2.37
2018-07-31T09:09:18.497Z,2.50
2018-07-31T09:11:46.892Z,2.60
2018-07-31T09:14:15.285Z,1.93
2018-07-31T09:16:43.694Z,2.00
2018-07-31T09:19:12.105Z,2.30
2018-07-31T09:21:40.516Z,2.20
2018-07-31T09:24:08.959Z,2.50
2018-07-31T09:26:37.354Z,2.70
2018-07-31T09:29:05.755Z,2.60
2018-07-31T09:31:34.155Z,2.50
2018-07-31T09:34:02.554Z,2.63
2018-07-31T09:36:31.009Z,2.80
2018-07-31T09:38:59.369Z,2.80
2018-07-31T09:41:27.783Z,3.27
2018-07-31T09:43:56.172Z,2.83
2018-07-31T09:46:24.572Z,2.50
2018-07-31T09:48:53.014Z,2.70
2018-07-31T09:51:21.424Z,2.77
2018-07-31T09:53:49.814Z,2.77
2018-07-31T09:56:18.214Z,3.00
2018-07-31T09:58:46.616Z,2.90
2018-07-31T10:01:20.806Z,2.40
2018-07-31T10:03:50.349Z,2.97
2018-07-31T10:06:18.771Z,2.07
2018-07-31T10:08:48.326Z,2.40
2018-07-31T10:11:16.734Z,2.57
2018-07-31T10:13:45.611Z,2.60
2018-07-31T10:16:14.145Z,2.40
2018-07-31T10:18:43.518Z,2.23
2018-07-31T10:21:12.712Z,2.30
2018-07-31T10:23:41.645Z,2.20
2018-07-31T10:26:10.381Z,2.10
2018-07-31T10:28:39.113Z,1.80
2018-07-31T10:31:08.929Z,1.80
2018-07-31T10:33:39.289Z,1.90
2018-07-31T10:36:08.221Z,2.10
2018-07-31T10:38:36.851Z,2.83
2018-07-31T10:41:05.350Z,2.43
2018-07-31T10:43:33.814Z,1.90
2018-07-31T10:46:02.191Z,1.80
2018-07-31T10:48:30.693Z,2.10
2018-07-31T10:50:59.132Z,2.30
2018-07-31T10:53:27.529Z,2.27
2018-07-31T10:55:55.925Z,2.10
2018-07-31T10:58:24.376Z,2.40
2018-07-31T11:00:52.757Z,2.13
2018-07-31T11:03:21.230Z,2.53
2018-07-31T11:05:49.664Z,2.07
2018-07-31T11:08:18.068Z,2.53
2018-07-31T11:10:46.475Z,2.03
2018-07-31T11:13:15.434Z,1.50
2018-07-31T11:15:44.006Z,1.50
2018-07-31T11:18:12.393Z,1.90
2018-07-31T11:20:41.302Z,1.80
2018-07-31T11:23:09.728Z,1.80
2018-07-31T11:25:39.006Z,1.77
2018-07-31T11:28:07.398Z,1.90
2018-07-31T11:30:35.791Z,1.80
2018-07-31T11:33:04.222Z,2.10
2018-07-31T11:35:32.673Z,1.93
2018-07-31T11:38:01.225Z,2.23
2018-07-31T11:40:29.795Z,2.40
2018-07-31T11:42:58.233Z,1.83
2018-07-31T11:45:26.642Z,2.47
2018-07-31T11:47:55.080Z,2.20
2018-07-31T11:50:23.499Z,2.00
2018-07-31T11:52:51.913Z,2.30
2018-07-31T11:55:20.576Z,2.27
2018-07-31T11:57:48.999Z,2.37
2018-07-31T12:00:17.425Z,2.23
2018-07-31T12:02:45.851Z,2.00
2018-07-31T12:05:14.259Z,1.70
2018-07-31T12:07:43.060Z,1.70
2018-07-31T12:10:11.563Z,1.77
2018-07-31T12:12:39.976Z,2.00
2018-07-31T12:15:08.413Z,1.87
2018-07-31T12:17:36.838Z,1.70
2018-07-31T12:20:06.268Z,2.07
2018-07-31T12:22:34.693Z,2.23
2018-07-31T12:25:03.429Z,1.70
2018-07-31T12:27:31.959Z,1.50
2018-07-31T12:30:00.602Z,1.93
2018-07-31T12:32:29.074Z,1.50
2018-07-31T12:34:57.469Z,1.90
2018-07-31T12:37:26.019Z,1.47
2018-07-31T12:39:54.415Z,1.70
2018-07-31T12:42:22.811Z,1.43
2018-07-31T12:44:51.197Z,1.53
2018-07-31T12:47:19.591Z,1.70
2018-07-31T12:49:48.006Z,1.53
2018-07-31T12:52:16.412Z,1.50
2018-07-31T12:54:44.819Z,1.80
2018-07-31T12:57:13.242Z,1.67
2018-07-31T12:59:41.736Z,2.00
2018-07-31T13:02:10.180Z,1.73
2018-07-31T13:04:38.595Z,1.77
2018-07-31T13:07:07.444Z,1.70
2018-07-31T13:09:35.845Z,1.80
2018-07-31T13:12:05.239Z,1.90
2018-07-31T13:14:33.630Z,1.67
2018-07-31T13:17:02.065Z,1.80
2018-07-31T13:19:30.482Z,1.60
2018-07-31T13:21:58.885Z,1.80
2018-07-31T13:24:27.278Z,1.70
2018-07-31T13:26:55.812Z,2.10
2018-07-31T13:29:24.825Z,2.17
2018-07-31T13:31:53.652Z,1.60
2018-07-31T13:34:22.062Z,1.60
2018-07-31T13:36:50.466Z,1.97
2018-07-31T13:39:18.886Z,1.53
2018-07-31T13:41:47.715Z,1.70
2018-07-31T13:44:16.167Z,1.50
2018-07-31T13:46:44.646Z,1.40
2018-07-31T13:49:13.110Z,1.40
2018-07-31T13:51:41.863Z,1.70
2018-07-31T13:54:10.280Z,2.03
2018-07-31T13:56:38.741Z,1.60
2018-07-31T13:59:07.472Z,1.50
2018-07-31T14:01:35.945Z,1.43
2018-07-31T14:04:04.405Z,1.80
2018-07-31T14:06:32.843Z,1.50
2018-07-31T14:09:01.241Z,1.43
2018-07-31T14:11:29.638Z,1.50
2018-07-31T14:13:58.359Z,1.27
2018-07-31T14:16:26.780Z,1.47
2018-07-31T14:18:55.675Z,1.23
2018-07-31T14:21:24.152Z,1.20
2018-07-31T14:23:52.559Z,1.47
2018-07-31T14:26:20.960Z,1.30
2018-07-31T14:28:49.706Z,1.20
2018-07-31T14:31:18.227Z,1.03
2018-07-31T14:33:46.611Z,1.43
2018-07-31T14:36:15.026Z,1.50
2018-07-31T14:38:43.436Z,1.50
2018-07-31T14:41:11.831Z,1.40
2018-07-31T14:43:40.734Z,1.27
2018-07-31T14:46:09.174Z,1.40
2018-07-31T14:48:37.601Z,1.23
2018-07-31T14:51:06.058Z,1.20
2018-07-31T14:53:34.455Z,1.30
2018-07-31T14:56:02.860Z,1.37
2018-07-31T14:58:31.316Z,1.30
2018-07-31T15:00:59.712Z,1.00
2018-07-31T15:03:27.888Z,1.00
2018-07-31T15:05:56.277Z,1.43
2018-07-31T15:08:24.666Z,1.37
2018-07-31T15:10:53.102Z,1.17
2018-07-31T15:13:21.505Z,1.40
2018-07-31T15:15:49.924Z,1.17
2018-07-31T15:18:18.314Z,1.20
2018-07-31T15:20:46.759Z,1.10
2018-07-31T15:23:15.158Z,1.00
2018-07-31T15:25:43.563Z,1.10
2018-07-31T15:28:11.984Z,1.20
2018-07-31T15:30:40.397Z,1.20
2018-07-31T15:33:08.795Z,1.03
2018-07-31T15:35:37.225Z,1.10
2018-07-31T15:38:05.810Z,1.17
2018-07-31T15:40:35.074Z,1.10
2018-07-31T15:43:03.476Z,0.90
2018-07-31T15:45:31.908Z,1.20
2018-07-31T15:48:00.565Z,1.20
2018-07-31T15:50:29.637Z,1.10
2018-07-31T15:52:58.643Z,1.23
2018-07-31T15:55:27.372Z,0.90
2018-07-31T15:57:55.773Z,1.30
2018-07-31T16:00:24.458Z,1.17
2018-07-31T16:02:52.864Z,1.70
2018-07-31T16:05:21.950Z,0.90
2018-07-31T16:07:50.403Z,2.20
2018-07-31T16:10:18.797Z,1.13
2018-07-31T16:12:47.190Z,1.23
2018-07-31T16:15:15.577Z,1.60
2018-07-31T16:17:43.974Z,1.40
2018-07-31T16:20:12.386Z,1.10
2018-07-31T16:22:41.465Z,1.10
2018-07-31T16:25:09.904Z,0.90
2018-07-31T16:27:38.794Z,1.00
2018-07-31T16:30:07.858Z,0.97
2018-07-31T16:32:36.260Z,1.00
2018-07-31T16:35:05.244Z,1.13
2018-07-31T16:37:33.638Z,1.13
2018-07-31T16:40:02.070Z,1.17
2018-07-31T16:42:30.475Z,1.10
2018-07-31T16:44:59.103Z,1.47
2018-07-31T16:47:27.816Z,0.90
2018-07-31T16:49:56.642Z,1.13
2018-07-31T16:52:25.054Z,1.00
2018-07-31T16:54:54.338Z,0.93
2018-07-31T16:57:22.764Z,1.00
2018-07-31T16:59:51.239Z,1.10
2018-07-31T17:02:20.088Z,1.10
2018-07-31T17:04:48.516Z,0.90
2018-07-31T17:07:17.207Z,0.90
2018-07-31T17:09:45.743Z,1.00
2018-07-31T17:12:14.222Z,1.10
2018-07-31T17:14:42.708Z,1.10
2018-07-31T17:17:11.205Z,1.20
2018-07-31T17:19:40.268Z,0.83
2018-07-31T17:22:08.753Z,1.30
2018-07-31T17:24:37.216Z,1.17
2018-07-31T17:27:05.595Z,1.10
2018-07-31T17:29:34.543Z,1.07
2018-07-31T17:32:02.973Z,1.00
2018-07-31T17:34:31.376Z,1.20
2018-07-31T17:36:59.772Z,1.00
2018-07-31T17:39:28.176Z,0.87
2018-07-31T17:41:56.591Z,1.00
2018-07-31T17:44:25.049Z,1.10
2018-07-31T17:46:53.471Z,1.10
2018-07-31T17:49:22.026Z,0.90
2018-07-31T17:51:50.567Z,0.80
2018-07-31T17:54:19.727Z,1.03
2018-07-31T17:56:48.561Z,0.90
2018-07-31T17:59:16.980Z,1.10
2018-07-31T18:01:45.708Z,1.37
2018-07-31T18:04:18.432Z,1.37
2018-07-31T18:06:47.079Z,1.73
2018-07-31T18:09:15.784Z,2.00
2018-07-31T18:11:45.114Z,2.00
2018-07-31T18:14:13.835Z,1.87
2018-07-31T18:16:42.196Z,1.90
2018-07-31T18:19:10.708Z,1.97
2018-07-31T18:21:39.690Z,2.17
2018-07-31T18:24:08.675Z,1.80
2018-07-31T18:26:37.812Z,2.27
2018-07-31T18:29:06.819Z,1.87
2018-07-31T18:31:35.307Z,1.83
2018-07-31T18:34:03.691Z,1.90
2018-07-31T18:36:32.260Z,2.20
2018-07-31T18:39:00.841Z,2.13
2018-07-31T18:41:29.235Z,2.10
2018-07-31T18:43:57.643Z,2.00
2018-07-31T18:46:26.095Z,2.20
2018-07-31T18:48:54.514Z,2.73
2018-07-31T18:51:22.920Z,2.17
2018-07-31T18:53:51.765Z,2.27
2018-07-31T18:56:20.158Z,2.13
2018-07-31T18:58:48.934Z,2.13
2018-07-31T19:01:17.495Z,2.13
2018-07-31T19:03:45.908Z,2.00
2018-07-31T19:06:14.350Z,2.00
2018-07-31T19:08:43.164Z,2.53
2018-07-31T19:11:11.564Z,2.60
2018-07-31T19:13:39.967Z,2.33
2018-07-31T19:16:08.388Z,2.37
2018-07-31T19:18:37.627Z,2.63
2018-07-31T19:21:06.031Z,2.80
2018-07-31T19:23:34.445Z,2.20
2018-07-31T19:26:02.913Z,2.50
2018-07-31T19:28:31.813Z,2.40
2018-07-31T19:31:00.205Z,2.50
2018-07-31T19:33:28.681Z,2.50
2018-07-31T19:35:57.246Z,2.80
2018-07-31T19:38:26.035Z,2.60
2018-07-31T19:40:54.213Z,2.40
2018-07-31T19:43:22.633Z,2.70
2018-07-31T19:45:51.061Z,2.67
2018-07-31T19:48:19.475Z,2.40
2018-07-31T19:50:47.869Z,2.63
2018-07-31T19:53:16.281Z,2.70
2018-07-31T19:55:44.692Z,2.70
2018-07-31T19:58:13.094Z,2.53
2018-07-31T20:00:41.496Z,2.33
2018-07-31T20:03:11.044Z,2.83
2018-07-31T20:05:39.460Z,2.50
2018-07-31T20:08:07.856Z,3.40
2018-07-31T20:10:36.495Z,2.87
2018-07-31T20:13:04.977Z,2.63
2018-07-31T20:15:33.447Z,2.80
2018-07-31T20:18:01.817Z,2.90
2018-07-31T20:20:30.840Z,2.77
2018-07-31T20:22:59.589Z,2.63
2018-07-31T20:25:28.844Z,2.57
2018-07-31T20:27:58.731Z,2.60
2018-07-31T20:30:38.323Z,3.07
2018-07-31T20:33:07.390Z,2.60
2018-07-31T20:35:37.430Z,3.50
2018-07-31T20:38:05.900Z,3.00
2018-07-31T20:40:39.656Z,3.80
2018-07-31T20:43:08.139Z,3.30
2018-07-31T20:45:36.962Z,2.80
2018-07-31T20:48:06.260Z,3.23
2018-07-31T20:50:36.943Z,2.73
2018-07-31T20:53:06.146Z,3.27
2018-07-31T20:55:34.850Z,3.50
2018-07-31T20:58:03.567Z,2.97
2018-07-31T21:00:32.859Z,3.00
2018-07-31T21:03:01.251Z,3.27
2018-07-31T21:05:29.736Z,3.20
2018-07-31T21:07:58.228Z,3.07
2018-07-31T21:10:26.634Z,3.30
2018-07-31T21:12:55.035Z,3.63
2018-07-31T21:15:23.896Z,3.70
2018-07-31T21:17:52.654Z,3.90
2018-07-31T21:20:22.023Z,3.10
2018-07-31T21:22:50.417Z,3.50
2018-07-31T21:25:18.868Z,3.27
2018-07-31T21:27:47.499Z,3.30
2018-07-31T21:30:16.501Z,3.90
2018-07-31T21:32:44.905Z,3.93
2018-07-31T21:35:13.303Z,3.30
2018-07-31T21:37:41.800Z,4.30
2018-07-31T21:40:10.455Z,3.70
2018-07-31T21:42:38.854Z,4.50
2018-07-31T21:45:07.266Z,4.60
2018-07-31T21:47:35.673Z,4.50
2018-07-31T21:50:04.204Z,4.27
2018-07-31T21:52:35.815Z,3.83
2018-07-31T21:55:10.620Z,4.13
2018-07-31T21:57:39.001Z,3.97
2018-07-31T22:00:10.052Z,3.90
2018-07-31T22:02:39.089Z,3.93
2018-07-31T22:05:08.038Z,3.87
2018-07-31T22:07:36.457Z,3.97
2018-07-31T22:10:05.464Z,3.90
2018-07-31T22:12:33.884Z,4.13
2018-07-31T22:15:02.296Z,3.30
2018-07-31T22:17:30.703Z,3.93
2018-07-31T22:19:59.090Z,4.00
2018-07-31T22:22:28.298Z,3.83
2018-07-31T22:24:57.380Z,3.80
2018-07-31T22:27:25.709Z,3.30
2018-07-31T22:29:54.114Z,3.90
2018-07-31T22:32:22.619Z,3.63
2018-07-31T22:34:51.006Z,3.63
2018-07-31T22:37:19.416Z,3.90
2018-07-31T22:39:48.171Z,4.70
2018-07-31T22:42:16.583Z,4.73
2018-07-31T22:44:44.980Z,4.10
2018-07-31T22:47:13.372Z,5.43
2018-07-31T22:49:41.780Z,5.10
2018-07-31T22:52:10.742Z,5.50
2018-07-31T22:54:39.142Z,5.10
2018-07-31T22:57:07.543Z,4.97
2018-07-31T22:59:36.045Z,5.37
2018-07-31T23:02:04.461Z,4.63
2018-07-31T23:04:33.648Z,4.97
2018-07-31T23:07:02.050Z,5.07
2018-07-31T23:09:30.434Z,5.90
2018-07-31T23:11:58.946Z,5.43
2018-07-31T23:14:27.339Z,4.90
2018-07-31T23:16:56.055Z,5.60
2018-07-31T23:19:24.448Z,4.60
2018-07-31T23:21:53.019Z,5.40
2018-07-31T23:24:21.431Z,5.63
2018-07-31T23:26:49.844Z,5.50
2018-07-31T23:29:18.243Z,5.80
2018-07-31T23:31:46.660Z,5.30
2018-07-31T23:34:15.083Z,5.60
2018-07-31T23:36:43.465Z,5.77
2018-07-31T23:39:12.901Z,5.70
2018-07-31T23:41:41.309Z,6.03
2018-07-31T23:44:10.164Z,4.77
2018-07-31T23:46:39.871Z,6.90
2018-07-31T23:49:08.264Z,6.90
2018-07-31T23:51:36.686Z,6.43
2018-07-31T23:54:05.099Z,6.73
2018-07-31T23:56:33.503Z,6.67
2018-07-31T23:59:01.903Z,5.93
